sensor_id;sensor_type;location;lat;lon;timestamp;temperature;humidity
79694;DHT22;69165;52.714;13.200;2023-09-19T05:01:11;16.50;99.90
79694;DHT22;69165;52.714;13.200;2023-09-19T05:03:12;16.50;99.90
79694;DHT22;69165;52.714;13.200;2023-09-19T05:05:13;16.50;99.90
79694;DHT22;69165;52.714;13.200;2023-09-19T05:07:15;16.50;99.90
79694;DHT22;69165;52.714;13.200;2023-09-19T05:09:17;16.50;99.90
79694;DHT22;69165;52.714;13.200;2023-09-19T05:11:19;16.50;99.90
79694;DHT22;69165;52.714;13.200;2023-09-19T05:13:20;16.50;99.90
79694;DHT22;69165;52.714;13.200;2023-09-19T05:15:21;16.50;99.90
79694;DHT22;69165;52.714;13.200;2023-09-19T05:17:22;16.50;99.90
79694;DHT22;69165;52.714;13.200;2023-09-19T05:19:25;16.40;99.90
79694;DHT22;69165;52.714;13.200;2023-09-19T05:21:26;16.50;99.90
79694;DHT22;69165;52.714;13.200;2023-09-19T05:23:30;16.40;99.90
79694;DHT22;69165;52.714;13.200;2023-09-19T05:25:32;16.40;99.90
79694;DHT22;69165;52.714;13.200;2023-09-19T05:27:33;16.40;99.90
79694;DHT22;69165;52.714;13.200;2023-09-19T05:29:34;16.40;99.90
79694;DHT22;69165;52.714;13.200;2023-09-19T05:31:35;16.40;99.90
79694;DHT22;69165;52.714;13.200;2023-09-19T05:33:38;16.40;99.90
79694;DHT22;69165;52.714;13.200;2023-09-19T05:35:39;16.40;99.90
79694;DHT22;69165;52.714;13.200;2023-09-19T05:37:40;16.40;99.90
79694;DHT22;69165;52.714;13.200;2023-09-19T05:39:42;16.40;99.90
79694;DHT22;69165;52.714;13.200;2023-09-19T05:41:43;16.40;99.90
79694;DHT22;69165;52.714;13.200;2023-09-19T05:43:45;16.40;99.90
79694;DHT22;69165;52.714;13.200;2023-09-19T05:45:47;16.40;99.90
79694;DHT22;69165;52.714;13.200;2023-09-19T05:47:49;16.30;99.90
79694;DHT22;69165;52.714;13.200;2023-09-19T05:49:51;16.40;99.90
79694;DHT22;69165;52.714;13.200;2023-09-19T05:51:53;16.40;99.90
79694;DHT22;69165;52.714;13.200;2023-09-19T05:53:54;16.30;99.90
79694;DHT22;69165;52.714;13.200;2023-09-19T05:55:55;16.30;99.90
79694;DHT22;69165;52.714;13.200;2023-09-19T05:57:57;16.30;99.90
79694;DHT22;69165;52.714;13.200;2023-09-19T05:59:58;16.30;99.90
79694;DHT22;69165;52.714;13.200;2023-09-19T06:01:59;16.40;99.90
79694;DHT22;69165;52.714;13.200;2023-09-19T06:04:00;16.40;99.90
79694;DHT22;69165;52.714;13.200;2023-09-19T06:06:02;16.40;99.90
79694;DHT22;69165;52.714;13.200;2023-09-19T06:08:03;16.40;99.90
79694;DHT22;69165;52.714;13.200;2023-09-19T06:10:04;16.40;99.90
79694;DHT22;69165;52.714;13.200;2023-09-19T06:12:07;16.50;99.90
79694;DHT22;69165;52.714;13.200;2023-09-19T06:14:09;16.50;99.90
79694;DHT22;69165;52.714;13.200;2023-09-19T06:16:10;16.50;99.90
79694;DHT22;69165;52.714;13.200;2023-09-19T06:18:11;16.50;99.90
79694;DHT22;69165;52.714;13.200;2023-09-19T06:20:12;16.60;99.90
79694;DHT22;69165;52.714;13.200;2023-09-19T06:22:15;16.60;99.90
79694;DHT22;69165;52.714;13.200;2023-09-19T06:24:16;16.60;99.90
79694;DHT22;69165;52.714;13.200;2023-09-19T06:26:17;16.60;99.90
79694;DHT22;69165;52.714;13.200;2023-09-19T06:28:18;16.80;99.90
79694;DHT22;69165;52.714;13.200;2023-09-19T06:30:20;16.80;99.90
79694;DHT22;69165;52.714;13.200;2023-09-19T06:32:26;16.80;99.90
79694;DHT22;69165;52.714;13.200;2023-09-19T06:34:22;16.90;99.90
79694;DHT22;69165;52.714;13.200;2023-09-19T06:36:23;17.00;99.90
79694;DHT22;69165;52.714;13.200;2023-09-19T06:38:24;17.00;99.90
79694;DHT22;69165;52.714;13.200;2023-09-19T06:40:26;17.10;99.90
79694;DHT22;69165;52.714;13.200;2023-09-19T06:42:27;17.10;99.90
79694;DHT22;69165;52.714;13.200;2023-09-19T06:44:29;17.30;99.90
79694;DHT22;69165;52.714;13.200;2023-09-19T06:46:30;17.20;99.90
79694;DHT22;69165;52.714;13.200;2023-09-19T06:48:32;17.30;99.90
79694;DHT22;69165;52.714;13.200;2023-09-19T06:50:33;17.40;99.90
79694;DHT22;69165;52.714;13.200;2023-09-19T06:52:35;17.50;99.90
79694;DHT22;69165;52.714;13.200;2023-09-19T06:54:36;17.50;99.90
79694;DHT22;69165;52.714;13.200;2023-09-19T06:56:38;17.60;99.90
79694;DHT22;69165;52.714;13.200;2023-09-19T06:58:39;17.60;99.90
79694;DHT22;69165;52.714;13.200;2023-09-19T07:00:41;17.60;99.90
79694;DHT22;69165;52.714;13.200;2023-09-19T07:02:43;17.60;99.90
79694;DHT22;69165;52.714;13.200;2023-09-19T07:04:44;17.60;99.90
79694;DHT22;69165;52.714;13.200;2023-09-19T07:06:49;17.60;99.90
79694;DHT22;69165;52.714;13.200;2023-09-19T07:08:51;17.60;99.90
79694;DHT22;69165;52.714;13.200;2023-09-19T07:10:53;17.50;99.90
79694;DHT22;69165;52.714;13.200;2023-09-19T07:12:55;17.50;99.90
79694;DHT22;69165;52.714;13.200;2023-09-19T07:14:56;17.50;99.90
79694;DHT22;69165;52.714;13.200;2023-09-19T07:16:57;17.50;99.90
79694;DHT22;69165;52.714;13.200;2023-09-19T07:18:58;17.50;99.90
79694;DHT22;69165;52.714;13.200;2023-09-19T07:21:00;17.40;99.90
79694;DHT22;69165;52.714;13.200;2023-09-19T07:23:02;17.40;99.90
79694;DHT22;69165;52.714;13.200;2023-09-19T07:25:03;17.40;99.90
79694;DHT22;69165;52.714;13.200;2023-09-19T07:27:05;17.40;99.90
79694;DHT22;69165;52.714;13.200;2023-09-19T07:29:06;17.40;99.90
79694;DHT22;69165;52.714;13.200;2023-09-19T07:31:07;17.40;99.90
79694;DHT22;69165;52.714;13.200;2023-09-19T07:33:09;17.50;99.90
79694;DHT22;69165;52.714;13.200;2023-09-19T07:35:12;17.50;99.90
79694;DHT22;69165;52.714;13.200;2023-09-19T07:37:13;17.50;99.90
79694;DHT22;69165;52.714;13.200;2023-09-19T07:39:15;17.50;99.90
79694;DHT22;69165;52.714;13.200;2023-09-19T07:41:16;17.50;99.90
79694;DHT22;69165;52.714;13.200;2023-09-19T07:43:18;17.50;99.90
79694;DHT22;69165;52.714;13.200;2023-09-19T07:45:19;17.60;99.90
79694;DHT22;69165;52.714;13.200;2023-09-19T07:47:20;17.60;99.90
79694;DHT22;69165;52.714;13.200;2023-09-19T07:49:23;17.80;99.90
79694;DHT22;69165;52.714;13.200;2023-09-19T07:51:24;17.80;99.90
79694;DHT22;69165;52.714;13.200;2023-09-19T07:53:26;17.90;99.90
79694;DHT22;69165;52.714;13.200;2023-09-19T07:55:28;17.90;99.90
79694;DHT22;69165;52.714;13.200;2023-09-19T07:57:29;17.90;99.90
79694;DHT22;69165;52.714;13.200;2023-09-19T07:59:30;17.90;99.90
79694;DHT22;69165;52.714;13.200;2023-09-19T08:01:31;17.80;99.90
79694;DHT22;69165;52.714;13.200;2023-09-19T08:03:33;17.80;99.90
79694;DHT22;69165;52.714;13.200;2023-09-19T08:05:35;17.80;99.90
79694;DHT22;69165;52.714;13.200;2023-09-19T08:07:36;17.80;99.90
79694;DHT22;69165;52.714;13.200;2023-09-19T08:09:38;17.70;99.90
79694;DHT22;69165;52.714;13.200;2023-09-19T08:11:39;17.60;99.90
79694;DHT22;69165;52.714;13.200;2023-09-19T08:13:41;17.50;99.90
79694;DHT22;69165;52.714;13.200;2023-09-19T08:15:43;17.50;99.90
79694;DHT22;69165;52.714;13.200;2023-09-19T08:17:44;17.50;99.90
79694;DHT22;69165;52.714;13.200;2023-09-19T08:19:45;17.50;99.90
79694;DHT22;69165;52.714;13.200;2023-09-19T08:21:46;17.50;99.90
79694;DHT22;69165;52.714;13.200;2023-09-19T08:23:49;17.70;99.90
79694;DHT22;69165;52.714;13.200;2023-09-19T08:25:55;17.70;99.90
79694;DHT22;69165;52.714;13.200;2023-09-19T08:27:52;17.70;99.90
79694;DHT22;69165;52.714;13.200;2023-09-19T08:29:53;17.70;99.90
79694;DHT22;69165;52.714;13.200;2023-09-19T08:31:55;17.80;99.90
79694;DHT22;69165;52.714;13.200;2023-09-19T08:33:56;17.90;99.90
79694;DHT22;69165;52.714;13.200;2023-09-19T08:35:58;17.90;99.90
79694;DHT22;69165;52.714;13.200;2023-09-19T08:37:59;18.10;99.90
79694;DHT22;69165;52.714;13.200;2023-09-19T08:40:01;18.30;99.90
79694;DHT22;69165;52.714;13.200;2023-09-19T08:42:03;18.30;99.90
79694;DHT22;69165;52.714;13.200;2023-09-19T08:44:04;18.40;99.90
79694;DHT22;69165;52.714;13.200;2023-09-19T08:46:09;18.50;99.90
79694;DHT22;69165;52.714;13.200;2023-09-19T08:48:11;18.60;99.90
79694;DHT22;69165;52.714;13.200;2023-09-19T08:50:11;18.80;99.90
79694;DHT22;69165;52.714;13.200;2023-09-19T08:52:46;18.70;99.90
79694;DHT22;69165;52.714;13.200;2023-09-19T08:54:32;18.80;99.90
79694;DHT22;69165;52.714;13.200;2023-09-19T08:56:32;18.90;99.90
79694;DHT22;69165;52.714;13.200;2023-09-19T08:58:34;19.00;99.90
79694;DHT22;69165;52.714;13.200;2023-09-19T09:00:34;19.20;99.90
79694;DHT22;69165;52.714;13.200;2023-09-19T09:02:36;19.30;99.90
79694;DHT22;69165;52.714;13.200;2023-09-19T09:04:38;19.30;99.90
79694;DHT22;69165;52.714;13.200;2023-09-19T09:06:38;19.30;99.90
79694;DHT22;69165;52.714;13.200;2023-09-19T09:08:40;19.20;99.90
79694;DHT22;69165;52.714;13.200;2023-09-19T09:10:43;19.20;99.90
79694;DHT22;69165;52.714;13.200;2023-09-19T09:12:43;19.20;99.90
79694;DHT22;69165;52.714;13.200;2023-09-19T09:14:45;19.40;99.90
79694;DHT22;69165;52.714;13.200;2023-09-19T09:16:46;19.40;99.90
79694;DHT22;69165;52.714;13.200;2023-09-19T09:18:48;19.60;99.90
79694;DHT22;69165;52.714;13.200;2023-09-19T09:20:51;19.50;99.90
79694;DHT22;69165;52.714;13.200;2023-09-19T09:22:53;19.50;99.90
79694;DHT22;69165;52.714;13.200;2023-09-19T09:24:55;19.40;99.90
79694;DHT22;69165;52.714;13.200;2023-09-19T09:26:57;19.50;99.90
79694;DHT22;69165;52.714;13.200;2023-09-19T09:28:58;19.50;99.90
79694;DHT22;69165;52.714;13.200;2023-09-19T09:31:00;19.60;99.90
79694;DHT22;69165;52.714;13.200;2023-09-19T09:35:09;19.50;99.90
79694;DHT22;69165;52.714;13.200;2023-09-19T09:37:13;19.50;99.90
79694;DHT22;69165;52.714;13.200;2023-09-19T09:39:14;19.40;99.90
79694;DHT22;69165;52.714;13.200;2023-09-19T09:41:17;19.20;99.90
79694;DHT22;69165;52.714;13.200;2023-09-19T09:45:25;19.00;99.90
79694;DHT22;69165;52.714;13.200;2023-09-19T09:49:37;19.10;99.90
79694;DHT22;69165;52.714;13.200;2023-09-19T09:51:38;19.30;99.90
79694;DHT22;69165;52.714;13.200;2023-09-19T09:53:40;19.60;99.90
79694;DHT22;69165;52.714;13.200;2023-09-19T09:57:52;20.00;99.90
79694;DHT22;69165;52.714;13.200;2023-09-19T09:59:50;20.20;99.90
79694;DHT22;69165;52.714;13.200;2023-09-19T10:01:52;20.30;99.90
79694;DHT22;69165;52.714;13.200;2023-09-19T10:03:57;20.30;99.90
79694;DHT22;69165;52.714;13.200;2023-09-19T10:05:58;20.20;99.90
79694;DHT22;69165;52.714;13.200;2023-09-19T10:08:09;20.10;99.90
79694;DHT22;69165;52.714;13.200;2023-09-19T10:10:02;20.10;99.90
79694;DHT22;69165;52.714;13.200;2023-09-19T10:12:07;20.00;99.90
79694;DHT22;69165;52.714;13.200;2023-09-19T10:14:10;20.20;99.90
79694;DHT22;69165;52.714;13.200;2023-09-19T10:16:10;20.30;99.90
79694;DHT22;69165;52.714;13.200;2023-09-19T10:18:12;20.40;99.90
79694;DHT22;69165;52.714;13.200;2023-09-19T10:20:14;20.40;99.90
79694;DHT22;69165;52.714;13.200;2023-09-19T10:22:37;20.50;99.90
79694;DHT22;69165;52.714;13.200;2023-09-19T10:24:38;20.50;99.90
79694;DHT22;69165;52.714;13.200;2023-09-19T10:26:40;20.40;99.90
79694;DHT22;69165;52.714;13.200;2023-09-19T10:28:41;20.40;99.90
79694;DHT22;69165;52.714;13.200;2023-09-19T10:30:43;20.30;99.90
79694;DHT22;69165;52.714;13.200;2023-09-19T10:32:45;20.10;99.90
79694;DHT22;69165;52.714;13.200;2023-09-19T10:34:46;20.00;99.90
79694;DHT22;69165;52.714;13.200;2023-09-19T10:36:47;20.00;99.90
79694;DHT22;69165;52.714;13.200;2023-09-19T10:38:48;20.10;99.90
79694;DHT22;69165;52.714;13.200;2023-09-19T10:40:50;20.20;99.90
79694;DHT22;69165;52.714;13.200;2023-09-19T10:42:52;20.20;99.90
79694;DHT22;69165;52.714;13.200;2023-09-19T10:44:53;20.20;99.90
79694;DHT22;69165;52.714;13.200;2023-09-19T10:46:54;20.10;99.90
79694;DHT22;69165;52.714;13.200;2023-09-19T10:48:58;20.00;99.90
79694;DHT22;69165;52.714;13.200;2023-09-19T10:53:05;20.20;99.90
79694;DHT22;69165;52.714;13.200;2023-09-19T10:55:06;20.20;99.90
79694;DHT22;69165;52.714;13.200;2023-09-19T10:57:08;20.40;99.90
79694;DHT22;69165;52.714;13.200;2023-09-19T10:59:11;20.50;99.90
79694;DHT22;69165;52.714;13.200;2023-09-19T11:01:12;20.50;99.90
79694;DHT22;69165;52.714;13.200;2023-09-19T11:03:17;20.70;99.90
79694;DHT22;69165;52.714;13.200;2023-09-19T11:05:20;20.70;99.90
79694;DHT22;69165;52.714;13.200;2023-09-19T11:07:22;20.80;99.90
79694;DHT22;69165;52.714;13.200;2023-09-19T11:09:24;20.80;99.90
79694;DHT22;69165;52.714;13.200;2023-09-19T11:13:32;20.80;99.90
79694;DHT22;69165;52.714;13.200;2023-09-19T11:17:42;21.00;99.90
79694;DHT22;69165;52.714;13.200;2023-09-19T11:21:52;21.20;99.90
79694;DHT22;69165;52.714;13.200;2023-09-19T11:24:27;21.30;99.90
79694;DHT22;69165;52.714;13.200;2023-09-19T11:26:02;21.30;99.90
79694;DHT22;69165;52.714;13.200;2023-09-19T11:30:26;21.30;99.90
79694;DHT22;69165;52.714;13.200;2023-09-19T11:33:15;21.30;99.90
79694;DHT22;69165;52.714;13.200;2023-09-19T11:36:35;21.00;99.90
79694;DHT22;69165;52.714;13.200;2023-09-19T11:38:58;20.90;99.90
79694;DHT22;69165;52.714;13.200;2023-09-19T11:43:27;21.00;99.90
79694;DHT22;69165;52.714;13.200;2023-09-19T11:45:07;21.10;99.90
79694;DHT22;69165;52.714;13.200;2023-09-19T11:47:08;21.10;99.90
79694;DHT22;69165;52.714;13.200;2023-09-19T11:49:10;21.20;99.90
79694;DHT22;69165;52.714;13.200;2023-09-19T11:51:14;21.10;99.90
79694;DHT22;69165;52.714;13.200;2023-09-19T11:53:16;21.10;99.90
79694;DHT22;69165;52.714;13.200;2023-09-19T11:55:17;20.90;99.90
79694;DHT22;69165;52.714;13.200;2023-09-19T11:57:20;20.80;99.90
79694;DHT22;69165;52.714;13.200;2023-09-19T11:59:20;20.90;99.90
79694;DHT22;69165;52.714;13.200;2023-09-19T12:01:28;21.00;99.90
79694;DHT22;69165;52.714;13.200;2023-09-19T12:03:29;21.00;99.90
79694;DHT22;69165;52.714;13.200;2023-09-19T12:05:29;20.90;99.90
79694;DHT22;69165;52.714;13.200;2023-09-19T12:07:30;20.90;99.90
79694;DHT22;69165;52.714;13.200;2023-09-19T12:09:32;21.00;99.90
79694;DHT22;69165;52.714;13.200;2023-09-19T12:11:33;21.00;99.90
79694;DHT22;69165;52.714;13.200;2023-09-19T12:13:34;21.00;99.90
79694;DHT22;69165;52.714;13.200;2023-09-19T12:15:35;20.90;99.90
79694;DHT22;69165;52.714;13.200;2023-09-19T12:17:37;20.90;99.90
79694;DHT22;69165;52.714;13.200;2023-09-19T12:19:38;20.90;99.90
79694;DHT22;69165;52.714;13.200;2023-09-19T12:21:40;20.80;99.90
79694;DHT22;69165;52.714;13.200;2023-09-19T12:23:41;20.80;99.90
79694;DHT22;69165;52.714;13.200;2023-09-19T12:25:43;20.80;99.90
79694;DHT22;69165;52.714;13.200;2023-09-19T12:27:47;20.90;99.90
79694;DHT22;69165;52.714;13.200;2023-09-19T12:29:48;20.90;99.90
79694;DHT22;69165;52.714;13.200;2023-09-19T12:31:51;20.90;99.90
79694;DHT22;69165;52.714;13.200;2023-09-19T12:33:54;20.90;99.90
79694;DHT22;69165;52.714;13.200;2023-09-19T12:35:56;20.90;99.90
79694;DHT22;69165;52.714;13.200;2023-09-19T12:37:57;20.90;99.90
79694;DHT22;69165;52.714;13.200;2023-09-19T12:40:05;20.80;99.90
79694;DHT22;69165;52.714;13.200;2023-09-19T12:42:05;20.80;99.90
79694;DHT22;69165;52.714;13.200;2023-09-19T12:44:07;20.90;99.90
79694;DHT22;69165;52.714;13.200;2023-09-19T12:46:09;20.90;99.90
79694;DHT22;69165;52.714;13.200;2023-09-19T12:50:17;20.80;99.90
79694;DHT22;69165;52.714;13.200;2023-09-19T12:52:19;20.80;99.90
79694;DHT22;69165;52.714;13.200;2023-09-19T12:54:20;20.80;99.90
79694;DHT22;69165;52.714;13.200;2023-09-19T12:56:22;20.70;99.90
79694;DHT22;69165;52.714;13.200;2023-09-19T12:58:23;20.70;99.90
79694;DHT22;69165;52.714;13.200;2023-09-19T13:02:31;20.50;99.90
79694;DHT22;69165;52.714;13.200;2023-09-19T13:04:33;20.50;99.90
79694;DHT22;69165;52.714;13.200;2023-09-19T13:06:35;20.50;99.90
79694;DHT22;69165;52.714;13.200;2023-09-19T13:08:38;20.40;99.90
79694;DHT22;69165;52.714;13.200;2023-09-19T13:12:46;20.40;99.90
79694;DHT22;69165;52.714;13.200;2023-09-19T13:14:48;20.40;99.90
79694;DHT22;69165;52.714;13.200;2023-09-19T13:17:08;20.40;99.90
79694;DHT22;69165;52.714;13.200;2023-09-19T13:19:34;20.50;99.90
79694;DHT22;69165;52.714;13.200;2023-09-19T13:21:16;20.50;99.90
79694;DHT22;69165;52.714;13.200;2023-09-19T13:23:26;20.40;99.90
79694;DHT22;69165;52.714;13.200;2023-09-19T13:25:27;20.40;99.90
79694;DHT22;69165;52.714;13.200;2023-09-19T13:27:28;20.40;99.90
79694;DHT22;69165;52.714;13.200;2023-09-19T13:29:30;20.40;99.90
79694;DHT22;69165;52.714;13.200;2023-09-19T13:31:31;20.40;99.90
79694;DHT22;69165;52.714;13.200;2023-09-19T13:33:33;20.30;99.90
79694;DHT22;69165;52.714;13.200;2023-09-19T13:35:34;20.30;99.90
79694;DHT22;69165;52.714;13.200;2023-09-19T13:37:37;20.30;99.90
79694;DHT22;69165;52.714;13.200;2023-09-19T13:39:37;20.30;99.90
79694;DHT22;69165;52.714;13.200;2023-09-19T13:41:39;20.20;99.90
79694;DHT22;69165;52.714;13.200;2023-09-19T13:43:41;20.20;99.90
79694;DHT22;69165;52.714;13.200;2023-09-19T13:45:42;20.20;99.90
79694;DHT22;69165;52.714;13.200;2023-09-19T13:47:43;20.20;99.90
79694;DHT22;69165;52.714;13.200;2023-09-19T13:49:45;20.20;99.90
79694;DHT22;69165;52.714;13.200;2023-09-19T13:51:47;20.20;99.90
79694;DHT22;69165;52.714;13.200;2023-09-19T13:53:48;20.20;99.90
79694;DHT22;69165;52.714;13.200;2023-09-19T13:55:49;20.10;99.90
79694;DHT22;69165;52.714;13.200;2023-09-19T13:57:50;20.10;99.90
79694;DHT22;69165;52.714;13.200;2023-09-19T13:59:52;20.00;99.90
79694;DHT22;69165;52.714;13.200;2023-09-19T14:01:53;20.00;99.90
79694;DHT22;69165;52.714;13.200;2023-09-19T14:03:54;19.90;99.90
79694;DHT22;69165;52.714;13.200;2023-09-19T14:05:56;19.90;99.90
79694;DHT22;69165;52.714;13.200;2023-09-19T14:07:58;19.90;99.90
79694;DHT22;69165;52.714;13.200;2023-09-19T14:09:59;19.90;99.90
79694;DHT22;69165;52.714;13.200;2023-09-19T14:12:00;19.80;99.90
79694;DHT22;69165;52.714;13.200;2023-09-19T14:14:01;19.80;99.90
79694;DHT22;69165;52.714;13.200;2023-09-19T14:16:04;19.80;99.90
79694;DHT22;69165;52.714;13.200;2023-09-19T14:18:05;19.80;99.90
79694;DHT22;69165;52.714;13.200;2023-09-19T14:20:06;19.80;99.90
79694;DHT22;69165;52.714;13.200;2023-09-19T14:22:09;19.80;99.90
79694;DHT22;69165;52.714;13.200;2023-09-19T14:24:09;19.80;99.90
79694;DHT22;69165;52.714;13.200;2023-09-19T14:26:10;19.80;99.90
79694;DHT22;69165;52.714;13.200;2023-09-19T14:28:11;19.80;99.90
79694;DHT22;69165;52.714;13.200;2023-09-19T14:30:13;19.90;99.90
79694;DHT22;69165;52.714;13.200;2023-09-19T14:32:15;19.90;99.90
79694;DHT22;69165;52.714;13.200;2023-09-19T14:34:16;19.90;99.90
79694;DHT22;69165;52.714;13.200;2023-09-19T14:36:18;19.90;99.90
79694;DHT22;69165;52.714;13.200;2023-09-19T14:38:20;19.90;99.90
79694;DHT22;69165;52.714;13.200;2023-09-19T14:40:22;19.90;99.90
79694;DHT22;69165;52.714;13.200;2023-09-19T14:42:23;19.90;99.90
79694;DHT22;69165;52.714;13.200;2023-09-19T14:44:24;19.80;99.90
79694;DHT22;69165;52.714;13.200;2023-09-19T14:46:25;19.80;99.90
79694;DHT22;69165;52.714;13.200;2023-09-19T14:48:27;19.90;99.90
79694;DHT22;69165;52.714;13.200;2023-09-19T14:50:28;19.90;99.90
79694;DHT22;69165;52.714;13.200;2023-09-19T14:52:29;19.90;99.90
79694;DHT22;69165;52.714;13.200;2023-09-19T14:54:30;19.90;99.90
79694;DHT22;69165;52.714;13.200;2023-09-19T14:56:32;19.90;99.90
79694;DHT22;69165;52.714;13.200;2023-09-19T14:58:33;19.80;99.90
79694;DHT22;69165;52.714;13.200;2023-09-19T15:00:34;19.80;99.90
79694;DHT22;69165;52.714;13.200;2023-09-19T15:02:35;19.80;99.90
79694;DHT22;69165;52.714;13.200;2023-09-19T15:04:37;19.80;99.90
79694;DHT22;69165;52.714;13.200;2023-09-19T15:06:39;19.80;99.90
79694;DHT22;69165;52.714;13.200;2023-09-19T15:08:40;19.80;99.90
79694;DHT22;69165;52.714;13.200;2023-09-19T15:10:41;19.80;99.90
79694;DHT22;69165;52.714;13.200;2023-09-19T15:12:42;19.80;99.90
79694;DHT22;69165;52.714;13.200;2023-09-19T15:14:44;19.80;99.90
79694;DHT22;69165;52.714;13.200;2023-09-19T15:16:47;19.70;99.90
79694;DHT22;69165;52.714;13.200;2023-09-19T15:18:48;19.80;99.90
79694;DHT22;69165;52.714;13.200;2023-09-19T15:20:49;19.80;99.90
79694;DHT22;69165;52.714;13.200;2023-09-19T15:22:51;19.80;99.90
79694;DHT22;69165;52.714;13.200;2023-09-19T15:24:53;19.80;99.90
79694;DHT22;69165;52.714;13.200;2023-09-19T15:26:54;19.80;99.90
79694;DHT22;69165;52.714;13.200;2023-09-19T15:28:56;19.80;99.90
79694;DHT22;69165;52.714;13.200;2023-09-19T15:31:01;19.70;99.90
79694;DHT22;69165;52.714;13.200;2023-09-19T15:33:03;19.80;99.90
79694;DHT22;69165;52.714;13.200;2023-09-19T15:35:04;19.80;99.90
79694;DHT22;69165;52.714;13.200;2023-09-19T15:37:05;19.70;99.90
79694;DHT22;69165;52.714;13.200;2023-09-19T15:39:07;19.70;99.90
79694;DHT22;69165;52.714;13.200;2023-09-19T15:41:12;19.70;99.90
79694;DHT22;69165;52.714;13.200;2023-09-19T15:43:13;19.70;99.90
79694;DHT22;69165;52.714;13.200;2023-09-19T15:45:15;19.70;99.90
79694;DHT22;69165;52.714;13.200;2023-09-19T15:47:16;19.60;99.90
79694;DHT22;69165;52.714;13.200;2023-09-19T15:49:17;19.60;99.90
79694;DHT22;69165;52.714;13.200;2023-09-19T15:51:18;19.60;99.90
79694;DHT22;69165;52.714;13.200;2023-09-19T15:53:20;19.60;99.90
79694;DHT22;69165;52.714;13.200;2023-09-19T15:55:22;19.60;99.90
79694;DHT22;69165;52.714;13.200;2023-09-19T15:57:23;19.60;99.90
79694;DHT22;69165;52.714;13.200;2023-09-19T15:59:24;19.60;99.90
79694;DHT22;69165;52.714;13.200;2023-09-19T16:01:25;19.60;99.90
79694;DHT22;69165;52.714;13.200;2023-09-19T16:03:27;19.60;99.90
79694;DHT22;69165;52.714;13.200;2023-09-19T16:05:28;19.60;99.90
79694;DHT22;69165;52.714;13.200;2023-09-19T16:07:29;19.50;99.90
79694;DHT22;69165;52.714;13.200;2023-09-19T16:09:30;19.40;99.90
79694;DHT22;69165;52.714;13.200;2023-09-19T16:11:32;19.40;99.90
79694;DHT22;69165;52.714;13.200;2023-09-19T16:13:33;19.40;99.90
79694;DHT22;69165;52.714;13.200;2023-09-19T16:15:41;19.40;99.90
79694;DHT22;69165;52.714;13.200;2023-09-19T16:17:37;19.30;99.90
79694;DHT22;69165;52.714;13.200;2023-09-19T16:19:37;19.40;99.90
79694;DHT22;69165;52.714;13.200;2023-09-19T16:21:39;19.30;99.90
79694;DHT22;69165;52.714;13.200;2023-09-19T16:23:44;19.30;99.90
79694;DHT22;69165;52.714;13.200;2023-09-19T16:25:42;19.20;99.90
79694;DHT22;69165;52.714;13.200;2023-09-19T16:27:44;19.10;99.90
79694;DHT22;69165;52.714;13.200;2023-09-19T16:29:45;19.10;99.90
79694;DHT22;69165;52.714;13.200;2023-09-19T16:31:46;19.10;99.90
79694;DHT22;69165;52.714;13.200;2023-09-19T16:33:48;19.00;99.90
79694;DHT22;69165;52.714;13.200;2023-09-19T16:35:49;19.00;99.90
79694;DHT22;69165;52.714;13.200;2023-09-19T16:37:50;18.90;99.90
79694;DHT22;69165;52.714;13.200;2023-09-19T16:39:52;18.90;99.90
79694;DHT22;69165;52.714;13.200;2023-09-19T16:41:53;18.80;99.90
79694;DHT22;69165;52.714;13.200;2023-09-19T16:43:54;18.80;99.90
79694;DHT22;69165;52.714;13.200;2023-09-19T16:45:58;18.70;99.90
79694;DHT22;69165;52.714;13.200;2023-09-19T16:47:58;18.70;99.90
79694;DHT22;69165;52.714;13.200;2023-09-19T16:50:00;18.60;99.90
79694;DHT22;69165;52.714;13.200;2023-09-19T16:52:01;18.60;99.90
79694;DHT22;69165;52.714;13.200;2023-09-19T16:54:02;18.60;99.90
79694;DHT22;69165;52.714;13.200;2023-09-19T16:56:05;18.60;99.90
79694;DHT22;69165;52.714;13.200;2023-09-19T16:58:06;18.50;99.90
79694;DHT22;69165;52.714;13.200;2023-09-19T17:00:09;18.50;99.90
79694;DHT22;69165;52.714;13.200;2023-09-19T17:02:10;18.50;99.90
79694;DHT22;69165;52.714;13.200;2023-09-19T17:04:11;18.50;99.90
79694;DHT22;69165;52.714;13.200;2023-09-19T17:06:13;18.50;99.90
79694;DHT22;69165;52.714;13.200;2023-09-19T17:08:15;18.40;99.90
79694;DHT22;69165;52.714;13.200;2023-09-19T17:10:16;18.40;99.90
79694;DHT22;69165;52.714;13.200;2023-09-19T17:12:17;18.30;99.90
79694;DHT22;69165;52.714;13.200;2023-09-19T17:14:19;18.30;99.90
79694;DHT22;69165;52.714;13.200;2023-09-19T17:16:20;18.20;99.90
79694;DHT22;69165;52.714;13.200;2023-09-19T17:18:22;18.10;99.90
79694;DHT22;69165;52.714;13.200;2023-09-19T17:20:24;18.10;99.90
79694;DHT22;69165;52.714;13.200;2023-09-19T17:22:25;18.10;99.90
79694;DHT22;69165;52.714;13.200;2023-09-19T17:24:26;18.10;99.90
79694;DHT22;69165;52.714;13.200;2023-09-19T17:26:27;18.00;99.90
79694;DHT22;69165;52.714;13.200;2023-09-19T17:28:30;17.90;99.90
79694;DHT22;69165;52.714;13.200;2023-09-19T17:30:31;17.90;99.90
79694;DHT22;69165;52.714;13.200;2023-09-19T17:32:34;17.90;99.90
79694;DHT22;69165;52.714;13.200;2023-09-19T17:34:34;17.80;99.90
79694;DHT22;69165;52.714;13.200;2023-09-19T17:36:35;17.80;99.90
79694;DHT22;69165;52.714;13.200;2023-09-19T17:38:37;17.70;99.90
79694;DHT22;69165;52.714;13.200;2023-09-19T17:40:39;17.70;99.90
79694;DHT22;69165;52.714;13.200;2023-09-19T17:42:39;17.60;99.90
79694;DHT22;69165;52.714;13.200;2023-09-19T17:44:40;17.60;99.90
79694;DHT22;69165;52.714;13.200;2023-09-19T17:46:42;17.50;99.90
79694;DHT22;69165;52.714;13.200;2023-09-19T17:48:44;17.50;99.90
79694;DHT22;69165;52.714;13.200;2023-09-19T17:50:44;17.40;99.90
79694;DHT22;69165;52.714;13.200;2023-09-19T17:52:45;17.40;99.90
79694;DHT22;69165;52.714;13.200;2023-09-19T17:54:47;17.40;99.90
79694;DHT22;69165;52.714;13.200;2023-09-19T17:56:48;17.40;99.90
79694;DHT22;69165;52.714;13.200;2023-09-19T17:58:50;17.30;99.90
79694;DHT22;69165;52.714;13.200;2023-09-19T18:00:52;17.20;99.90
79694;DHT22;69165;52.714;13.200;2023-09-19T18:02:53;17.30;99.90
79694;DHT22;69165;52.714;13.200;2023-09-19T18:04:55;17.20;99.90
79694;DHT22;69165;52.714;13.200;2023-09-19T18:06:56;17.20;99.90